Time;durP1;ratioP1;P1;durP2;ratioP2;P2;SDS_P1;SDS_P2;PMS_P1;PMS_P2;Temp;Humidity;BMP_temperature;BMP_pressure;BME280_temperature;BME280_humidity;BME280_pressure;Samples;Min_cycle;Max_cycle;Signal;HPM_P1;HPM_P2
2022/05/19 00:00:15;;;;;;;5.90;1.52;;;;;;;;;;5055370;28;20492;-69
2022/05/19 00:02:41;;;;;;;4.47;1.35;;;;;;;;;;5054669;28;20033;-69
2022/05/19 00:05:07;;;;;;;4.90;1.23;;;;;;;;;;5054852;28;20489;-69
2022/05/19 00:07:33;;;;;;;2.95;1.40;;;;;;;;;;5054657;28;20028;-69
2022/05/19 00:09:59;;;;;;;3.08;1.40;;;;;;;;;;5054900;28;20385;-69
2022/05/19 00:12:25;;;;;;;4.32;1.40;;;;;;;;;;5054442;28;20029;-69
2022/05/19 00:14:51;;;;;;;1.98;1.20;;;;;;;;;;5054492;28;20048;-69
2022/05/19 00:17:17;;;;;;;5.18;1.30;;;;;;;;;;5054446;28;20055;-69
2022/05/19 00:19:43;;;;;;;13.18;1.40;;;;;;;;;;5054469;28;20017;-69
2022/05/19 00:22:11;;;;;;;5.45;1.20;;;;;;;;;;5054553;28;20095;-70
2022/05/19 00:24:37;;;;;;;10.60;1.45;;;;;;;;;;5054708;28;20397;-70
2022/05/19 00:27:04;;;;;;;1.92;1.10;;;;;;;;;;5054188;28;20029;-69
2022/05/19 00:29:30;;;;;;;7.93;1.30;;;;;;;;;;5053968;28;20025;-69
2022/05/19 00:31:56;;;;;;;4.28;1.50;;;;;;;;;;5054336;28;20116;-69
2022/05/19 00:34:22;;;;;;;5.05;1.13;;;;;;;;;;5054549;28;20037;-70
2022/05/19 00:36:48;;;;;;;3.88;1.17;;;;;;;;;;5054263;28;20044;-69
2022/05/19 00:39:14;;;;;;;6.60;1.40;;;;;;;;;;5054514;28;20148;-69
2022/05/19 00:41:44;;;;;;;2.88;1.33;;;;;;;;;;5053909;28;20499;-69
2022/05/19 00:44:10;;;;;;;11.68;1.42;;;;;;;;;;5054118;28;20033;-69
2022/05/19 00:46:39;;;;;;;9.90;1.60;;;;;;;;;;5054056;28;20465;-69
2022/05/19 00:49:11;;;;;;;4.78;1.40;;;;;;;;;;5053983;28;20063;-69
2022/05/19 00:51:41;;;;;;;1.85;1.08;;;;;;;;;;5053551;28;20041;-69
2022/05/19 00:54:09;;;;;;;3.83;1.38;;;;;;;;;;5054036;28;20087;-69
2022/05/19 00:56:38;;;;;;;3.25;1.20;;;;;;;;;;5053632;28;20040;-69
2022/05/19 00:59:09;;;;;;;11.40;1.30;;;;;;;;;;5051560;28;20041;-69
2022/05/19 01:01:37;;;;;;;4.70;1.50;;;;;;;;;;5051161;28;20021;-70
2022/05/19 01:04:05;;;;;;;7.35;1.33;;;;;;;;;;5051293;28;20025;-71
2022/05/19 01:06:32;;;;;;;2.67;1.23;;;;;;;;;;5053460;28;20029;-69
2022/05/19 01:09:06;;;;;;;1.88;1.10;;;;;;;;;;5053666;28;20025;-69
2022/05/19 01:11:36;;;;;;;5.50;1.50;;;;;;;;;;5053447;28;20024;-70
2022/05/19 01:14:02;;;;;;;5.03;1.25;;;;;;;;;;5053065;28;20124;-69
2022/05/19 01:16:28;;;;;;;2.83;1.27;;;;;;;;;;5053245;28;20017;-69
2022/05/19 01:18:54;;;;;;;5.47;1.33;;;;;;;;;;5053338;28;20033;-69
2022/05/19 01:21:21;;;;;;;5.35;1.70;;;;;;;;;;5053215;28;20029;-69
2022/05/19 01:23:50;;;;;;;4.60;1.40;;;;;;;;;;5053318;28;20096;-70
2022/05/19 01:26:23;;;;;;;3.67;1.20;;;;;;;;;;5053393;28;20385;-69
2022/05/19 01:28:49;;;;;;;;;;;;;;;;;;5053442;28;20029;-69
2022/05/19 01:31:27;;;;;;;4.45;1.58;;;;;;;;;;5053402;28;19905;-68
2022/05/19 01:33:53;;;;;;;6.45;1.30;;;;;;;;;;5052914;28;20469;-69
2022/05/19 01:36:19;;;;;;;6.40;1.40;;;;;;;;;;5052662;28;20021;-69
2022/05/19 01:38:45;;;;;;;3.67;1.30;;;;;;;;;;5052546;28;20043;-69
2022/05/19 01:41:11;;;;;;;4.40;1.15;;;;;;;;;;5053160;28;20025;-69
2022/05/19 01:43:37;;;;;;;3.75;1.40;;;;;;;;;;5052748;28;20040;-69
2022/05/19 01:46:21;;;;;;;4.15;1.17;;;;;;;;;;5053051;28;20071;-70
2022/05/19 01:48:47;;;;;;;5.18;1.30;;;;;;;;;;5053198;28;20397;-68
2022/05/19 01:51:16;;;;;;;6.03;1.55;;;;;;;;;;5052744;28;20025;-69
2022/05/19 01:53:48;;;;;;;4.13;1.52;;;;;;;;;;5052893;28;20393;-69
2022/05/19 01:56:20;;;;;;;7.72;1.75;;;;;;;;;;5053297;28;20025;-69
2022/05/19 01:58:46;;;;;;;;;;;;;;;;;;5053449;28;20090;-69
2022/05/19 02:01:14;;;;;;;2.13;1.00;;;;;;;;;;5052876;28;20335;-68
2022/05/19 02:03:52;;;;;;;2.67;1.30;;;;;;;;;;5052917;28;20553;-69
2022/05/19 02:06:25;;;;;;;1.92;1.20;;;;;;;;;;5052804;28;20029;-70
2022/05/19 02:08:53;;;;;;;4.45;1.38;;;;;;;;;;5051604;28;20051;-69
2022/05/19 02:11:23;;;;;;;6.22;1.92;;;;;;;;;;5052642;28;20385;-70
2022/05/19 02:13:49;;;;;;;8.80;1.48;;;;;;;;;;5052690;28;20052;-68
2022/05/19 02:16:16;;;;;;;3.40;1.30;;;;;;;;;;5052679;28;20025;-69
2022/05/19 02:18:43;;;;;;;4.13;1.38;;;;;;;;;;5052976;28;20075;-69
2022/05/19 02:21:09;;;;;;;4.25;1.58;;;;;;;;;;5052833;28;20386;-69
2022/05/19 02:23:35;;;;;;;3.70;1.25;;;;;;;;;;5052647;28;20127;-70
2022/05/19 02:26:01;;;;;;;5.35;1.20;;;;;;;;;;5052536;28;20048;-69
2022/05/19 02:28:33;;;;;;;3.03;1.38;;;;;;;;;;5052650;28;20031;-69
2022/05/19 02:30:59;;;;;;;8.10;1.30;;;;;;;;;;5052586;28;20028;-69
2022/05/19 02:33:25;;;;;;;5.05;1.60;;;;;;;;;;5052032;28;20295;-69
2022/05/19 02:35:52;;;;;;;5.13;1.42;;;;;;;;;;5052533;28;20029;-68
2022/05/19 02:38:19;;;;;;;3.13;1.17;;;;;;;;;;5052360;28;20048;-69
2022/05/19 02:40:45;;;;;;;7.00;1.20;;;;;;;;;;5052397;28;20025;-69
2022/05/19 02:43:12;;;;;;;4.65;1.77;;;;;;;;;;5052343;28;20028;-70
2022/05/19 02:45:38;;;;;;;3.50;1.45;;;;;;;;;;5052624;28;20086;-69
2022/05/19 02:48:05;;;;;;;5.28;1.48;;;;;;;;;;5052354;28;20021;-69
2022/05/19 02:50:31;;;;;;;3.40;1.17;;;;;;;;;;5052430;28;20116;-69
2022/05/19 02:52:58;;;;;;;4.45;1.10;;;;;;;;;;5055179;28;20052;-69
2022/05/19 02:55:24;;;;;;;3.90;1.40;;;;;;;;;;5056217;28;20036;-69
2022/05/19 02:57:50;;;;;;;9.80;1.50;;;;;;;;;;5056096;28;20469;-70
2022/05/19 03:00:18;;;;;;;7.20;1.73;;;;;;;;;;5056353;28;20045;-69
2022/05/19 03:02:44;;;;;;;7.05;1.60;;;;;;;;;;5056174;28;20068;-69
2022/05/19 03:05:12;;;;;;;4.07;1.50;;;;;;;;;;5055694;28;20033;-69
2022/05/19 03:07:38;;;;;;;12.63;1.60;;;;;;;;;;5056148;28;20029;-68
2022/05/19 03:10:05;;;;;;;3.90;1.35;;;;;;;;;;5055943;28;20036;-69
2022/05/19 03:12:31;;;;;;;5.45;1.48;;;;;;;;;;5055537;28;20025;-69
2022/05/19 03:14:57;;;;;;;5.72;1.50;;;;;;;;;;5055784;28;20025;-69
2022/05/19 03:17:23;;;;;;;2.95;1.40;;;;;;;;;;5056030;28;20455;-69
2022/05/19 03:19:52;;;;;;;6.80;1.40;;;;;;;;;;5055840;28;20031;-69
2022/05/19 03:22:18;;;;;;;6.03;1.40;;;;;;;;;;5055889;28;20515;-69
2022/05/19 03:24:44;;;;;;;3.00;1.35;;;;;;;;;;5055869;28;20017;-68
2022/05/19 03:27:10;;;;;;;7.13;1.80;;;;;;;;;;5055630;28;20060;-68
2022/05/19 03:29:36;;;;;;;9.52;1.52;;;;;;;;;;5055849;28;20029;-69
2022/05/19 03:32:02;;;;;;;10.90;1.70;;;;;;;;;;5055451;28;20519;-69
2022/05/19 03:34:28;;;;;;;11.02;1.98;;;;;;;;;;5055338;28;20040;-69
2022/05/19 03:36:55;;;;;;;3.40;1.02;;;;;;;;;;5055449;28;20121;-69
2022/05/19 03:39:21;;;;;;;5.75;1.55;;;;;;;;;;5055178;28;20079;-69
2022/05/19 03:41:47;;;;;;;6.93;1.30;;;;;;;;;;5055229;28;20017;-69
2022/05/19 03:44:13;;;;;;;8.35;1.50;;;;;;;;;;5055576;28;20029;-68
2022/05/19 03:46:39;;;;;;;8.57;1.77;;;;;;;;;;5055111;28;20037;-69
2022/05/19 03:49:05;;;;;;;3.75;1.88;;;;;;;;;;5055203;28;20028;-69
2022/05/19 03:51:32;;;;;;;10.63;1.63;;;;;;;;;;5054957;28;20536;-69
2022/05/19 03:53:59;;;;;;;6.53;1.30;;;;;;;;;;5055233;28;20362;-69
2022/05/19 03:56:26;;;;;;;5.43;1.38;;;;;;;;;;5055075;28;20052;-68
2022/05/19 03:58:52;;;;;;;4.72;1.83;;;;;;;;;;5054870;28;20028;-70
2022/05/19 04:01:19;;;;;;;2.85;1.52;;;;;;;;;;5055060;28;20048;-69
2022/05/19 04:03:45;;;;;;;4.15;1.60;;;;;;;;;;5054142;28;20040;-69
2022/05/19 04:06:11;;;;;;;6.45;1.40;;;;;;;;;;5054595;28;20021;-68
2022/05/19 04:08:37;;;;;;;8.48;1.40;;;;;;;;;;5054957;28;20079;-69
2022/05/19 04:11:04;;;;;;;2.67;1.30;;;;;;;;;;5054914;28;20025;-69
2022/05/19 04:13:30;;;;;;;4.65;1.40;;;;;;;;;;5054886;28;20170;-69
2022/05/19 04:15:57;;;;;;;6.22;1.73;;;;;;;;;;5054916;28;20025;-69
2022/05/19 04:18:23;;;;;;;5.45;1.48;;;;;;;;;;5054878;28;20025;-69
2022/05/19 04:20:49;;;;;;;6.75;1.63;;;;;;;;;;5054574;28;20025;-68
2022/05/19 04:23:16;;;;;;;5.28;1.63;;;;;;;;;;5054528;28;20029;-69
2022/05/19 04:25:43;;;;;;;5.88;1.75;;;;;;;;;;5054766;28;20032;-69
2022/05/19 04:28:09;;;;;;;6.32;1.80;;;;;;;;;;5054247;28;20021;-70
2022/05/19 04:30:35;;;;;;;4.22;1.48;;;;;;;;;;5054500;28;20020;-67
2022/05/19 04:33:02;;;;;;;12.35;1.90;;;;;;;;;;5054411;28;20428;-67
2022/05/19 04:35:28;;;;;;;11.05;1.85;;;;;;;;;;5054568;28;20075;-67
2022/05/19 04:38:00;;;;;;;5.55;1.73;;;;;;;;;;5052942;28;20025;-67
2022/05/19 04:40:26;;;;;;;10.30;1.48;;;;;;;;;;5053175;28;20099;-67
2022/05/19 04:42:53;;;;;;;6.20;1.45;;;;;;;;;;5052438;28;20112;-67
2022/05/19 04:45:19;;;;;;;6.97;1.90;;;;;;;;;;5053390;28;20032;-67
2022/05/19 04:47:47;;;;;;;3.28;1.40;;;;;;;;;;5053627;28;20036;-67
2022/05/19 04:50:13;;;;;;;7.07;1.52;;;;;;;;;;5053705;28;20029;-67
2022/05/19 04:52:39;;;;;;;4.43;1.90;;;;;;;;;;5053389;28;20048;-67
2022/05/19 04:55:06;;;;;;;19.75;3.80;;;;;;;;;;5053796;28;20037;-67
2022/05/19 04:57:33;;;;;;;19.52;3.95;;;;;;;;;;5053596;28;20028;-67
2022/05/19 04:59:59;;;;;;;20.83;3.78;;;;;;;;;;5053895;28;20025;-67
2022/05/19 05:02:25;;;;;;;17.45;3.45;;;;;;;;;;5053324;28;20031;-67
2022/05/19 05:04:51;;;;;;;17.85;2.80;;;;;;;;;;5052894;28;20108;-67
2022/05/19 05:07:17;;;;;;;10.63;2.00;;;;;;;;;;5053547;28;20080;-67
2022/05/19 05:09:43;;;;;;;11.90;2.40;;;;;;;;;;5054051;28;20385;-67
2022/05/19 05:12:09;;;;;;;6.30;2.13;;;;;;;;;;5053754;28;20032;-67
2022/05/19 05:14:35;;;;;;;11.85;1.52;;;;;;;;;;5052831;28;20073;-67
2022/05/19 05:17:01;;;;;;;6.03;1.65;;;;;;;;;;5053592;28;20021;-67
2022/05/19 05:19:27;;;;;;;7.88;1.63;;;;;;;;;;5053464;28;20131;-67
2022/05/19 05:21:56;;;;;;;6.60;1.60;;;;;;;;;;5053741;28;20485;-67
2022/05/19 05:24:22;;;;;;;11.65;2.10;;;;;;;;;;5053472;28;20029;-67
2022/05/19 05:26:48;;;;;;;7.55;2.22;;;;;;;;;;5053252;28;20108;-67
2022/05/19 05:29:14;;;;;;;3.72;1.63;;;;;;;;;;5053547;28;20060;-67
2022/05/19 05:31:40;;;;;;;7.97;1.65;;;;;;;;;;5053327;28;20018;-67
2022/05/19 05:34:06;;;;;;;4.75;1.63;;;;;;;;;;5053241;28;20039;-67
2022/05/19 05:36:32;;;;;;;3.75;1.40;;;;;;;;;;5053162;28;20021;-67
2022/05/19 05:38:58;;;;;;;7.78;1.70;;;;;;;;;;5052780;28;20025;-67
2022/05/19 05:41:25;;;;;;;5.57;1.55;;;;;;;;;;5052867;28;20108;-70
2022/05/19 05:43:51;;;;;;;12.63;2.60;;;;;;;;;;5052714;28;20018;-71
2022/05/19 05:46:17;;;;;;;6.50;1.50;;;;;;;;;;5052692;28;20473;-71
2022/05/19 05:48:45;;;;;;;12.88;3.17;;;;;;;;;;5051728;28;20028;-70
2022/05/19 05:51:12;;;;;;;11.85;2.05;;;;;;;;;;5051053;28;20048;-71
2022/05/19 05:53:39;;;;;;;6.05;1.70;;;;;;;;;;5050710;28;20138;-71
2022/05/19 05:56:06;;;;;;;8.27;1.63;;;;;;;;;;5051869;28;20029;-70
2022/05/19 05:58:32;;;;;;;7.35;2.05;;;;;;;;;;5052242;28;20146;-71
2022/05/19 06:00:58;;;;;;;4.95;1.70;;;;;;;;;;5052494;28;20043;-71
2022/05/19 06:03:25;;;;;;;6.10;1.80;;;;;;;;;;5052539;28;20453;-70
2022/05/19 06:05:51;;;;;;;5.35;1.48;;;;;;;;;;5052448;28;20032;-71
2022/05/19 06:08:17;;;;;;;4.60;1.65;;;;;;;;;;5052682;28;20025;-71
2022/05/19 06:10:43;;;;;;;7.47;1.70;;;;;;;;;;5052863;28;20029;-70
2022/05/19 06:13:10;;;;;;;6.63;1.80;;;;;;;;;;5052436;28;20029;-70
2022/05/19 06:15:36;;;;;;;6.13;1.80;;;;;;;;;;5051751;28;20017;-70
2022/05/19 06:18:02;;;;;;;5.22;1.60;;;;;;;;;;5052382;28;20071;-71
2022/05/19 06:20:28;;;;;;;6.90;1.65;;;;;;;;;;5052336;28;20063;-71
2022/05/19 06:22:54;;;;;;;3.95;1.60;;;;;;;;;;5052293;28;20021;-71
2022/05/19 06:25:21;;;;;;;6.30;1.90;;;;;;;;;;5053302;28;20031;-70
2022/05/19 06:27:50;;;;;;;4.60;1.60;;;;;;;;;;5056393;28;20017;-71
2022/05/19 06:30:17;;;;;;;4.82;1.67;;;;;;;;;;5056396;28;20033;-73
2022/05/19 06:32:44;;;;;;;9.10;1.60;;;;;;;;;;5056408;28;20033;-66
2022/05/19 06:35:11;;;;;;;6.68;1.60;;;;;;;;;;5056766;28;20032;-66
2022/05/19 06:37:37;;;;;;;11.13;1.80;;;;;;;;;;5056835;28;20059;-66
2022/05/19 06:40:03;;;;;;;4.50;1.52;;;;;;;;;;5056399;28;20495;-66
2022/05/19 06:42:29;;;;;;;3.28;1.73;;;;;;;;;;5056385;28;20025;-66
2022/05/19 06:44:56;;;;;;;7.20;1.83;;;;;;;;;;5054248;28;20029;-67
2022/05/19 06:47:22;;;;;;;8.38;1.90;;;;;;;;;;5055818;28;20031;-66
2022/05/19 06:49:51;;;;;;;5.80;1.90;;;;;;;;;;5055734;28;20479;-66
2022/05/19 06:52:19;;;;;;;8.27;1.60;;;;;;;;;;5055354;28;20045;-67
2022/05/19 06:54:49;;;;;;;6.45;1.73;;;;;;;;;;5054173;28;20410;-66
2022/05/19 06:57:15;;;;;;;4.32;1.48;;;;;;;;;;5025053;28;20128;-66
2022/05/19 06:59:42;;;;;;;6.22;1.88;;;;;;;;;;5041062;28;20041;-66
2022/05/19 07:02:09;;;;;;;6.05;1.92;;;;;;;;;;5035816;28;20025;-66
2022/05/19 07:04:35;;;;;;;10.95;1.90;;;;;;;;;;5035335;28;20462;-70
2022/05/19 07:07:02;;;;;;;4.05;1.50;;;;;;;;;;5048633;28;20107;-65
2022/05/19 07:09:28;;;;;;;6.88;1.80;;;;;;;;;;5055390;28;20100;-70
2022/05/19 07:11:54;;;;;;;3.30;1.63;;;;;;;;;;5055148;28;20125;-68
2022/05/19 07:14:21;;;;;;;5.20;1.70;;;;;;;;;;5055259;28;20044;-65
2022/05/19 07:16:48;;;;;;;7.35;1.80;;;;;;;;;;5055588;28;20023;-65
2022/05/19 07:22:00;;;;;;;7.50;1.58;;;;;;;;;;5055772;28;20082;-65
2022/05/19 07:24:26;;;;;;;3.55;1.60;;;;;;;;;;5055183;28;20102;-65
2022/05/19 07:26:54;;;;;;;2.58;1.40;;;;;;;;;;5055152;28;20029;-66
2022/05/19 07:29:20;;;;;;;6.75;1.50;;;;;;;;;;5054126;28;20025;-69
2022/05/19 07:31:46;;;;;;;5.93;1.52;;;;;;;;;;5054576;28;20028;-67
2022/05/19 07:34:13;;;;;;;5.60;1.25;;;;;;;;;;5054533;28;20040;-66
2022/05/19 07:36:40;;;;;;;6.60;1.27;;;;;;;;;;5054283;28;20036;-65
2022/05/19 07:39:06;;;;;;;7.78;1.50;;;;;;;;;;5054179;28;20021;-65
2022/05/19 07:41:32;;;;;;;4.75;1.30;;;;;;;;;;5054422;28;20458;-67
2022/05/19 07:43:58;;;;;;;8.80;1.55;;;;;;;;;;5054301;28;20462;-66
2022/05/19 07:46:25;;;;;;;7.75;1.30;;;;;;;;;;5054688;28;20025;-66
2022/05/19 07:48:55;;;;;;;3.83;1.20;;;;;;;;;;5054769;28;20033;-66
2022/05/19 07:51:22;;;;;;;5.50;1.58;;;;;;;;;;5054747;28;20072;-65
2022/05/19 07:53:48;;;;;;;9.70;1.42;;;;;;;;;;5054733;28;20040;-72
2022/05/19 07:56:14;;;;;;;3.95;1.02;;;;;;;;;;5054550;28;20021;-66
2022/05/19 07:58:40;;;;;;;9.13;1.60;;;;;;;;;;5054425;28;20050;-72
2022/05/19 08:01:07;;;;;;;6.97;1.42;;;;;;;;;;5054310;28;20484;-66
2022/05/19 08:03:33;;;;;;;6.47;1.33;;;;;;;;;;5053982;28;20025;-66
2022/05/19 08:05:59;;;;;;;2.33;1.15;;;;;;;;;;5054697;28;20021;-66
2022/05/19 08:08:25;;;;;;;4.30;1.30;;;;;;;;;;5053786;28;20075;-66
2022/05/19 08:10:57;;;;;;;7.00;1.40;;;;;;;;;;5054051;28;20029;-66
2022/05/19 08:16:07;;;;;;;3.10;1.33;;;;;;;;;;5054641;28;20095;-66
2022/05/19 08:18:34;;;;;;;4.95;1.35;;;;;;;;;;5054074;28;20021;-66
2022/05/19 08:21:01;;;;;;;6.47;1.52;;;;;;;;;;5052543;28;20040;-66
2022/05/19 08:23:28;;;;;;;3.63;1.40;;;;;;;;;;5054207;28;20409;-66
2022/05/19 08:25:55;;;;;;;8.07;1.27;;;;;;;;;;5054056;28;20056;-66
2022/05/19 08:28:28;;;;;;;4.72;1.55;;;;;;;;;;5054101;28;20025;-66
2022/05/19 08:30:55;;;;;;;5.13;1.20;;;;;;;;;;5052759;28;20172;-66
2022/05/19 08:33:21;;;;;;;5.15;1.15;;;;;;;;;;5052699;28;20039;-65
2022/05/19 08:35:49;;;;;;;3.45;1.20;;;;;;;;;;5053427;28;20031;-66
2022/05/19 08:38:15;;;;;;;4.18;1.30;;;;;;;;;;5053180;28;20112;-67
2022/05/19 08:40:44;;;;;;;4.53;1.30;;;;;;;;;;5052924;28;20074;-66
2022/05/19 08:43:12;;;;;;;3.15;1.33;;;;;;;;;;5052856;28;20033;-67
2022/05/19 08:45:43;;;;;;;3.75;1.40;;;;;;;;;;5053466;28;20060;-67
2022/05/19 08:48:14;;;;;;;6.72;1.27;;;;;;;;;;5053947;28;20116;-66
2022/05/19 08:50:44;;;;;;;7.93;1.48;;;;;;;;;;5054066;28;20024;-66
2022/05/19 08:53:12;;;;;;;9.07;1.23;;;;;;;;;;5053761;28;20075;-67
2022/05/19 08:55:39;;;;;;;4.10;1.23;;;;;;;;;;5053902;28;20059;-67
2022/05/19 08:58:05;;;;;;;5.70;1.40;;;;;;;;;;5053961;28;20033;-66
2022/05/19 09:00:41;;;;;;;5.55;1.30;;;;;;;;;;5053804;28;20024;-67
2022/05/19 09:03:23;;;;;;;4.40;1.30;;;;;;;;;;5053491;28;20482;-66
2022/05/19 09:05:54;;;;;;;4.15;1.10;;;;;;;;;;5053174;28;20025;-67
2022/05/19 09:08:34;;;;;;;4.78;1.48;;;;;;;;;;5052682;28;20111;-67
2022/05/19 09:11:00;;;;;;;3.63;1.20;;;;;;;;;;5052495;28;20029;-67
2022/05/19 09:13:31;;;;;;;6.82;1.27;;;;;;;;;;5053758;28;20052;-66
2022/05/19 09:15:59;;;;;;;5.63;1.35;;;;;;;;;;5053074;28;20150;-66
2022/05/19 09:18:37;;;;;;;3.83;1.05;;;;;;;;;;5053685;28;20025;-66
2022/05/19 09:21:05;;;;;;;3.95;1.20;;;;;;;;;;5053046;28;20112;-67
2022/05/19 09:23:32;;;;;;;5.53;1.38;;;;;;;;;;5053052;28;20386;-67
2022/05/19 09:26:03;;;;;;;3.47;1.35;;;;;;;;;;5053254;28;20032;-67
2022/05/19 09:28:29;;;;;;;1.60;1.30;;;;;;;;;;5052923;28;20112;-67
2022/05/19 09:30:57;;;;;;;7.18;1.30;;;;;;;;;;5053061;28;20028;-68
2022/05/19 09:33:32;;;;;;;4.97;1.30;;;;;;;;;;5052678;28;20036;-69
2022/05/19 09:35:59;;;;;;;7.88;1.50;;;;;;;;;;5053005;28;20049;-66
2022/05/19 09:38:25;;;;;;;4.20;1.42;;;;;;;;;;5053292;28;20106;-66
2022/05/19 09:40:53;;;;;;;5.30;1.40;;;;;;;;;;5053093;28;20025;-67
2022/05/19 09:43:21;;;;;;;3.80;1.40;;;;;;;;;;5053193;28;20075;-73
2022/05/19 09:45:48;;;;;;;4.15;1.40;;;;;;;;;;5052735;28;20481;-67
2022/05/19 09:48:16;;;;;;;7.20;1.77;;;;;;;;;;5052868;28;20025;-66
2022/05/19 09:50:47;;;;;;;6.80;2.50;;;;;;;;;;5052874;28;20021;-66
2022/05/19 09:53:23;;;;;;;5.63;1.58;;;;;;;;;;5052522;28;20102;-67
2022/05/19 09:56:01;;;;;;;5.72;1.80;;;;;;;;;;5052856;28;20033;-66
2022/05/19 09:58:30;;;;;;;5.95;1.50;;;;;;;;;;5052980;28;20029;-66
2022/05/19 10:01:02;;;;;;;5.93;1.67;;;;;;;;;;5052353;28;20099;-67
2022/05/19 10:03:40;;;;;;;6.15;1.52;;;;;;;;;;5052932;28;20060;-67
2022/05/19 10:06:16;;;;;;;2.90;1.73;;;;;;;;;;5052913;28;20021;-66
2022/05/19 10:08:43;;;;;;;6.80;1.50;;;;;;;;;;5052306;28;20035;-67
2022/05/19 10:11:18;;;;;;;9.02;1.52;;;;;;;;;;5052066;28;20100;-67
2022/05/19 10:13:49;;;;;;;9.15;1.92;;;;;;;;;;5052976;28;20036;-66
2022/05/19 10:16:34;;;;;;;4.13;1.55;;;;;;;;;;5052056;28;20029;-69
2022/05/19 10:19:18;;;;;;;6.43;1.42;;;;;;;;;;5051178;28;20073;-69
2022/05/19 10:22:01;;;;;;;4.28;1.55;;;;;;;;;;5052313;28;20025;-66
2022/05/19 10:24:30;;;;;;;6.78;1.42;;;;;;;;;;5052385;28;20037;-67
2022/05/19 10:32:53;;;;;;;5.13;1.50;;;;;;;;;;5052426;28;20036;-67
2022/05/19 10:35:22;;;;;;;2.67;1.10;;;;;;;;;;5050873;28;20071;-72
2022/05/19 10:38:00;;;;;;;5.90;1.30;;;;;;;;;;5052028;28;20030;-67
2022/05/19 10:40:47;;;;;;;7.15;1.77;;;;;;;;;;5052010;28;20104;-72
2022/05/19 10:43:22;;;;;;;4.00;1.52;;;;;;;;;;5060602;28;20041;-72
2022/05/19 10:45:48;;;;;;;5.50;1.50;;;;;;;;;;5051668;28;20358;-73
2022/05/19 10:48:36;;;;;;;4.68;1.40;;;;;;;;;;5052466;28;20044;-73
2022/05/19 10:51:17;;;;;;;5.68;1.45;;;;;;;;;;5051273;28;20025;-67
2022/05/19 10:54:03;;;;;;;2.33;1.30;;;;;;;;;;5051917;28;20047;-71
2022/05/19 10:56:42;;;;;;;2.33;1.30;;;;;;;;;;5052263;28;20482;-73
2022/05/19 10:59:09;;;;;;;2.90;1.35;;;;;;;;;;5051872;28;20053;-73
2022/05/19 11:01:48;;;;;;;2.67;1.60;;;;;;;;;;5052518;28;20043;-67
2022/05/19 11:04:20;;;;;;;3.58;1.83;;;;;;;;;;5051665;28;20021;-67
2022/05/19 11:06:52;;;;;;;4.70;1.52;;;;;;;;;;5052014;28;20052;-67
2022/05/19 11:09:33;;;;;;;10.35;1.58;;;;;;;;;;5051972;28;20029;-67
2022/05/19 11:12:02;;;;;;;4.25;1.42;;;;;;;;;;5052684;28;20083;-67
2022/05/19 11:14:38;;;;;;;4.40;1.85;;;;;;;;;;5055347;28;20063;-69
2022/05/19 11:17:15;;;;;;;2.03;1.25;;;;;;;;;;5055335;28;20541;-67
2022/05/19 11:20:00;;;;;;;4.32;1.30;;;;;;;;;;5054981;28;20048;-67
2022/05/19 11:22:30;;;;;;;7.97;1.70;;;;;;;;;;5055784;28;20033;-68
2022/05/19 11:27:53;;;;;;;5.88;1.55;;;;;;;;;;5055590;28;20119;-67
2022/05/19 11:30:21;;;;;;;5.88;1.50;;;;;;;;;;5055220;28;20397;-67
2022/05/19 11:32:50;;;;;;;3.60;1.98;;;;;;;;;;5055026;28;20017;-67
2022/05/19 11:35:21;;;;;;;3.75;1.40;;;;;;;;;;5054606;28;20025;-71
2022/05/19 11:37:59;;;;;;;5.25;1.58;;;;;;;;;;5053975;28;20450;-68
2022/05/19 11:40:35;;;;;;;7.40;1.45;;;;;;;;;;5053564;28;20040;-72
2022/05/19 11:43:10;;;;;;;2.97;1.50;;;;;;;;;;5054107;28;20134;-67
2022/05/19 11:45:36;;;;;;;7.68;1.73;;;;;;;;;;5054259;28;20119;-68
2022/05/19 11:57:20;;;;;;;3.78;1.45;;;;;;;;;;5053605;28;20087;-73
2022/05/19 11:59:50;;;;;;;4.85;1.40;;;;;;;;;;5055177;28;20043;-68
2022/05/19 12:02:19;;;;;;;3.00;1.13;;;;;;;;;;5054969;28;20112;-67
2022/05/19 12:04:47;;;;;;;3.72;1.52;;;;;;;;;;5054752;28;20028;-66
2022/05/19 12:07:24;;;;;;;4.68;1.27;;;;;;;;;;5054878;28;20025;-65
2022/05/19 12:09:53;;;;;;;3.42;1.42;;;;;;;;;;5054386;28;20071;-66
2022/05/19 12:12:34;;;;;;;6.28;1.40;;;;;;;;;;5054635;28;20025;-65
2022/05/19 12:15:09;;;;;;;4.70;1.27;;;;;;;;;;5052969;28;20098;-67
2022/05/19 12:17:41;;;;;;;9.30;1.42;;;;;;;;;;5054258;28;20033;-68
2022/05/19 12:20:39;;;;;;;3.65;1.35;;;;;;;;;;5054632;28;20033;-68
2022/05/19 12:23:26;;;;;;;4.95;1.35;;;;;;;;;;5063543;28;20091;-67
2022/05/19 12:25:54;;;;;;;9.15;1.38;;;;;;;;;;5054220;28;20029;-67
2022/05/19 12:28:20;;;;;;;4.60;1.70;;;;;;;;;;5054683;28;20025;-67
2022/05/19 12:33:48;;;;;;;6.65;1.45;;;;;;;;;;5054536;28;20138;-70
2022/05/19 12:36:24;;;;;;;8.00;1.70;;;;;;;;;;5053167;28;20033;-68
2022/05/19 12:38:51;;;;;;;7.85;1.30;;;;;;;;;;5054080;28;20444;-66
2022/05/19 12:41:24;;;;;;;5.85;1.40;;;;;;;;;;5052393;28;20025;-67
2022/05/19 12:43:51;;;;;;;3.65;1.40;;;;;;;;;;5053272;28;20107;-67
2022/05/19 12:46:47;;;;;;;10.18;1.30;;;;;;;;;;5053313;28;20021;-71
2022/05/19 12:49:18;;;;;;;4.43;1.50;;;;;;;;;;5056561;28;20037;-67
2022/05/19 12:51:53;;;;;;;6.63;1.60;;;;;;;;;;5052687;28;20041;-68
2022/05/19 12:54:20;;;;;;;4.95;1.30;;;;;;;;;;5052439;28;20037;-67
2022/05/19 12:56:49;;;;;;;6.78;1.50;;;;;;;;;;5051850;28;20428;-72
2022/05/19 12:59:23;;;;;;;5.20;1.90;;;;;;;;;;5050014;28;20048;-67
2022/05/19 13:01:51;;;;;;;9.68;1.50;;;;;;;;;;5050473;28;20071;-66
2022/05/19 13:04:20;;;;;;;3.42;1.50;;;;;;;;;;5052602;28;20025;-67
2022/05/19 13:07:00;;;;;;;5.03;1.92;;;;;;;;;;5052434;28;20036;-65
2022/05/19 13:09:27;;;;;;;9.38;1.70;;;;;;;;;;5053361;28;20049;-66
2022/05/19 13:11:55;;;;;;;5.40;1.40;;;;;;;;;;5053299;28;20104;-66
2022/05/19 13:14:26;;;;;;;11.35;1.70;;;;;;;;;;5053393;28;20037;-66
2022/05/19 13:16:54;;;;;;;6.07;1.60;;;;;;;;;;5053386;28;20047;-70
2022/05/19 13:19:30;;;;;;;2.50;1.23;;;;;;;;;;5052914;28;20355;-68
2022/05/19 13:21:58;;;;;;;5.20;1.48;;;;;;;;;;5052175;28;20032;-71
2022/05/19 13:24:25;;;;;;;6.90;1.63;;;;;;;;;;5048811;28;20532;-67
2022/05/19 13:32:29;;;;;;;7.55;1.65;;;;;;;;;;5051408;28;20060;-75
2022/05/19 13:34:56;;;;;;;4.57;1.60;;;;;;;;;;5051405;28;20033;-66
2022/05/19 13:37:29;;;;;;;10.65;1.92;;;;;;;;;;5052632;28;20540;-67
2022/05/19 13:40:14;;;;;;;8.43;2.38;;;;;;;;;;5052954;28;20132;-69
2022/05/19 13:42:43;;;;;;;7.72;1.45;;;;;;;;;;5053251;28;20054;-67
2022/05/19 13:45:10;;;;;;;7.57;1.23;;;;;;;;;;5052780;28;20079;-67
2022/05/19 13:47:36;;;;;;;7.03;1.50;;;;;;;;;;5052889;28;20029;-66
2022/05/19 13:50:05;;;;;;;4.63;1.70;;;;;;;;;;5052395;28;20087;-67
2022/05/19 13:52:44;;;;;;;4.60;1.75;;;;;;;;;;5051928;28;20563;-67
2022/05/19 13:55:28;;;;;;;4.28;1.50;;;;;;;;;;5052705;28;20048;-66
2022/05/19 13:57:56;;;;;;;5.47;1.80;;;;;;;;;;5052678;28;20052;-67
2022/05/19 14:00:23;;;;;;;6.43;1.40;;;;;;;;;;5052523;28;20017;-67
2022/05/19 14:02:49;;;;;;;7.70;1.40;;;;;;;;;;5052286;28;20032;-66
2022/05/19 14:05:22;;;;;;;6.70;1.80;;;;;;;;;;5051395;28;20053;-66
2022/05/19 14:07:49;;;;;;;3.72;1.58;;;;;;;;;;5052203;28;20029;-69
2022/05/19 14:10:16;;;;;;;5.38;1.50;;;;;;;;;;5051884;28;20021;-66
2022/05/19 14:12:45;;;;;;;6.97;1.90;;;;;;;;;;5052225;28;20116;-66
2022/05/19 14:15:16;;;;;;;5.28;1.92;;;;;;;;;;5052138;28;20076;-66
2022/05/19 14:17:43;;;;;;;;;;;;;;;;;;5052593;28;20416;-71
2022/05/19 14:20:15;;;;;;;3.97;1.38;;;;;;;;;;5052531;28;19911;-66
2022/05/19 14:22:41;;;;;;;8.80;1.40;;;;;;;;;;5052578;28;20033;-67
2022/05/19 14:25:09;;;;;;;3.40;1.38;;;;;;;;;;5052300;28;20025;-72
2022/05/19 14:27:37;;;;;;;5.13;1.33;;;;;;;;;;5051963;28;20065;-66
2022/05/19 14:30:05;;;;;;;3.80;1.30;;;;;;;;;;5051831;28;20053;-66
2022/05/19 14:32:35;;;;;;;10.90;1.52;;;;;;;;;;5051717;28;20024;-66
2022/05/19 14:35:18;;;;;;;4.45;1.40;;;;;;;;;;5050728;28;20300;-66
2022/05/19 14:37:48;;;;;;;3.88;1.60;;;;;;;;;;5051284;28;20473;-67
2022/05/19 14:43:09;;;;;;;5.70;1.52;;;;;;;;;;5052121;28;20443;-66
2022/05/19 14:45:39;;;;;;;17.63;2.17;;;;;;;;;;5052080;28;20067;-65
2022/05/19 14:48:22;;;;;;;4.47;1.40;;;;;;;;;;5055319;28;20033;-65
2022/05/19 14:50:52;;;;;;;7.75;1.77;;;;;;;;;;5055901;28;20032;-66
2022/05/19 14:53:20;;;;;;;6.03;1.45;;;;;;;;;;5055374;28;20049;-67
2022/05/19 14:55:54;;;;;;;8.70;1.90;;;;;;;;;;5055602;28;20158;-66
2022/05/19 14:58:23;;;;;;;10.25;1.73;;;;;;;;;;5056290;28;20029;-66
2022/05/19 15:00:50;;;;;;;6.28;1.73;;;;;;;;;;5055559;28;20025;-65
2022/05/19 15:03:16;;;;;;;3.63;1.60;;;;;;;;;;5055567;28;20024;-65
2022/05/19 15:05:43;;;;;;;4.18;1.55;;;;;;;;;;5055507;28;20055;-65
2022/05/19 15:08:11;;;;;;;4.15;1.40;;;;;;;;;;5055500;28;20428;-66
2022/05/19 15:10:37;;;;;;;8.40;1.80;;;;;;;;;;5055741;28;20028;-65
2022/05/19 15:13:04;;;;;;;4.75;1.70;;;;;;;;;;5055325;28;20025;-66
2022/05/19 15:15:32;;;;;;;7.53;1.55;;;;;;;;;;5055336;28;20029;-70
2022/05/19 15:17:58;;;;;;;10.18;1.60;;;;;;;;;;5055560;28;20031;-66
2022/05/19 15:20:25;;;;;;;2.58;1.33;;;;;;;;;;5055085;28;20025;-73
2022/05/19 15:22:52;;;;;;;3.55;1.15;;;;;;;;;;5054927;28;20063;-66
2022/05/19 15:25:18;;;;;;;3.67;1.45;;;;;;;;;;5055148;28;20414;-65
2022/05/19 15:27:45;;;;;;;3.45;1.45;;;;;;;;;;5054899;28;20021;-65